AKJ839Q VIDP-VAAH
Flight info
| Callsign | AKJ839Q |
|---|---|
| Flight time | 1h 9m |
| Altitude | 38000 |
| Route | DUDUM7G DUDUM A474 NIKOT Q5 UUD UUD1A |
| Aircraft | B738/M-SDE1FGHILORVWXY/HB1 |
Departure
| Time | 2026-04-28 10:54 |
|---|---|
| Airport | Indira Gandhi International Airport (VIDP) |
Arrival
| Time | 2026-04-28 12:04 |
|---|---|
| Airport | Sardar Vallabh Patel International Airport (VAAH) |
| Time | Latitude | Longitude | Altitude | Speed | Heading |
|---|---|---|---|---|---|
| 2026-04-28 10:18 | 28.55144 | 77.08901 | 750 ft | 0 kts | 240° |
| 2026-04-28 10:41 | 28.55144 | 77.08903 | 759 ft | 2 kts | 240° |
| 2026-04-28 10:42 | 28.55159 | 77.08927 | 745 ft | 4 kts | 221° |
| 2026-04-28 10:42 | 28.55180 | 77.08940 | 746 ft | 4 kts | 180° |
| 2026-04-28 10:42 | 28.55196 | 77.08937 | 746 ft | 0 kts | 149° |
| 2026-04-28 10:45 | 28.55189 | 77.08942 | 747 ft | 2 kts | 149° |
| 2026-04-28 10:45 | 28.55167 | 77.08957 | 748 ft | 5 kts | 149° |
| 2026-04-28 10:45 | 28.55132 | 77.08983 | 748 ft | 8 kts | 140° |
| 2026-04-28 10:46 | 28.55077 | 77.09042 | 750 ft | 13 kts | 148° |
| 2026-04-28 10:46 | 28.54992 | 77.09100 | 750 ft | 15 kts | 148° |
| 2026-04-28 10:46 | 28.54899 | 77.09166 | 749 ft | 16 kts | 148° |
| 2026-04-28 10:46 | 28.54813 | 77.09153 | 749 ft | 16 kts | 263° |
| 2026-04-28 10:47 | 28.54837 | 77.09029 | 749 ft | 17 kts | 285° |
| 2026-04-28 10:47 | 28.54867 | 77.08901 | 750 ft | 17 kts | 284° |
| 2026-04-28 10:47 | 28.54897 | 77.08770 | 747 ft | 17 kts | 284° |
| 2026-04-28 10:47 | 28.54928 | 77.08636 | 747 ft | 18 kts | 285° |
| 2026-04-28 10:48 | 28.54960 | 77.08500 | 747 ft | 18 kts | 285° |
| 2026-04-28 10:48 | 28.54992 | 77.08360 | 750 ft | 19 kts | 285° |
| 2026-04-28 10:48 | 28.55025 | 77.08218 | 750 ft | 19 kts | 285° |
| 2026-04-28 10:48 | 28.55059 | 77.08073 | 749 ft | 19 kts | 285° |
| 2026-04-28 10:49 | 28.55093 | 77.07927 | 750 ft | 19 kts | 285° |
| 2026-04-28 10:49 | 28.55126 | 77.07776 | 749 ft | 19 kts | 283° |
| 2026-04-28 10:49 | 28.55159 | 77.07628 | 749 ft | 20 kts | 284° |
| 2026-04-28 10:49 | 28.55197 | 77.07464 | 750 ft | 23 kts | 284° |
| 2026-04-28 10:50 | 28.55222 | 77.07280 | 750 ft | 17 kts | 242° |
| 2026-04-28 10:50 | 28.55174 | 77.07253 | 750 ft | 11 kts | 193° |
| 2026-04-28 10:50 | 28.55074 | 77.07228 | 750 ft | 11 kts | 193° |
| 2026-04-28 10:50 | 28.55057 | 77.07223 | 747 ft | 0 kts | 193° |
| 2026-04-28 10:51 | 28.55046 | 77.07220 | 749 ft | 4 kts | 193° |
| 2026-04-28 10:52 | 28.54999 | 77.07207 | 749 ft | 10 kts | 193° |
| 2026-04-28 10:52 | 28.54927 | 77.07210 | 750 ft | 7 kts | 124° |
| 2026-04-28 10:52 | 28.54923 | 77.07232 | 750 ft | 0 kts | 99° |
| 2026-04-28 10:53 | 28.54920 | 77.07253 | 750 ft | 10 kts | 99° |
| 2026-04-28 10:54 | 28.54853 | 77.07565 | 749 ft | 76 kts | 103° |
| 2026-04-28 10:54 | 28.54676 | 77.08398 | 750 ft | 139 kts | 103° |
| 2026-04-28 10:54 | 28.54415 | 77.09641 | 937 ft | 175 kts | 102° |
| 2026-04-28 10:54 | 28.54101 | 77.11017 | 1594 ft | 186 kts | 104° |
| 2026-04-28 10:55 | 28.53696 | 77.12495 | 2152 ft | 204 kts | 116° |
| 2026-04-28 10:55 | 28.52828 | 77.13806 | 2677 ft | 218 kts | 145° |
| 2026-04-28 10:55 | 28.51365 | 77.14358 | 2840 ft | 233 kts | 186° |
| 2026-04-28 10:55 | 28.50306 | 77.14122 | 3036 ft | 237 kts | 201° |
| 2026-04-28 10:56 | 28.48752 | 77.13478 | 3565 ft | 242 kts | 202° |
| 2026-04-28 10:56 | 28.47063 | 77.12864 | 3715 ft | 267 kts | 198° |
| 2026-04-28 10:56 | 28.45207 | 77.12340 | 4279 ft | 277 kts | 195° |
| 2026-04-28 10:56 | 28.43323 | 77.11877 | 5122 ft | 279 kts | 194° |
| 2026-04-28 10:57 | 28.41404 | 77.11434 | 5836 ft | 283 kts | 194° |
| 2026-04-28 10:57 | 28.39477 | 77.11004 | 6472 ft | 285 kts | 193° |
| 2026-04-28 10:57 | 28.37514 | 77.10573 | 7164 ft | 291 kts | 194° |
| 2026-04-28 10:57 | 28.35515 | 77.10138 | 7917 ft | 293 kts | 194° |
| 2026-04-28 10:58 | 28.33499 | 77.09701 | 8603 ft | 299 kts | 194° |
| 2026-04-28 10:58 | 28.31502 | 77.09043 | 9258 ft | 300 kts | 211° |
| 2026-04-28 10:58 | 28.29861 | 77.07623 | 9966 ft | 296 kts | 227° |
| 2026-04-28 10:58 | 28.28383 | 77.05998 | 10722 ft | 296 kts | 228° |
| 2026-04-28 10:59 | 28.26917 | 77.04341 | 11442 ft | 299 kts | 229° |
| 2026-04-28 10:59 | 28.25448 | 77.02675 | 12192 ft | 300 kts | 228° |
| 2026-04-28 10:59 | 28.23949 | 77.00981 | 12708 ft | 312 kts | 228° |
| 2026-04-28 10:59 | 28.22356 | 76.99181 | 12858 ft | 334 kts | 228° |
| 2026-04-28 11:00 | 28.20659 | 76.97274 | 13029 ft | 353 kts | 228° |
| 2026-04-28 11:00 | 28.18879 | 76.95285 | 13428 ft | 363 kts | 227° |
| 2026-04-28 11:00 | 28.17075 | 76.93280 | 14019 ft | 365 kts | 227° |
| 2026-04-28 11:00 | 28.15253 | 76.91258 | 14645 ft | 367 kts | 227° |
| 2026-04-28 11:01 | 28.13424 | 76.89229 | 15224 ft | 369 kts | 227° |
| 2026-04-28 11:01 | 28.11579 | 76.87184 | 15758 ft | 373 kts | 227° |
| 2026-04-28 11:01 | 28.09714 | 76.85116 | 16318 ft | 376 kts | 227° |
| 2026-04-28 11:01 | 28.07837 | 76.83035 | 16883 ft | 379 kts | 227° |
| 2026-04-28 11:02 | 28.05943 | 76.80938 | 17513 ft | 382 kts | 227° |
| 2026-04-28 11:02 | 28.04045 | 76.78837 | 18007 ft | 385 kts | 227° |
| 2026-04-28 11:02 | 28.02115 | 76.76700 | 18418 ft | 389 kts | 227° |
| 2026-04-28 11:02 | 28.00176 | 76.74555 | 18917 ft | 391 kts | 227° |
| 2026-04-28 11:03 | 27.98228 | 76.72402 | 19432 ft | 392 kts | 227° |
| 2026-04-28 11:03 | 27.96271 | 76.70239 | 19906 ft | 395 kts | 226° |
| 2026-04-28 11:03 | 27.94300 | 76.68063 | 20366 ft | 398 kts | 226° |
| 2026-04-28 11:03 | 27.92314 | 76.65870 | 20826 ft | 400 kts | 226° |
| 2026-04-28 11:04 | 27.90316 | 76.63666 | 21281 ft | 403 kts | 226° |
| 2026-04-28 11:04 | 27.88305 | 76.61448 | 21731 ft | 405 kts | 226° |
| 2026-04-28 11:04 | 27.86280 | 76.59215 | 22176 ft | 408 kts | 226° |
| 2026-04-28 11:04 | 27.84242 | 76.56970 | 22606 ft | 410 kts | 226° |
| 2026-04-28 11:05 | 27.82192 | 76.54714 | 23031 ft | 413 kts | 226° |
| 2026-04-28 11:05 | 27.80122 | 76.52449 | 23423 ft | 416 kts | 224° |
| 2026-04-28 11:05 | 27.77835 | 76.50427 | 23786 ft | 420 kts | 217° |
| 2026-04-28 11:05 | 27.75398 | 76.48596 | 24169 ft | 421 kts | 215° |
| 2026-04-28 11:06 | 27.72929 | 76.46811 | 24539 ft | 423 kts | 215° |
| 2026-04-28 11:06 | 27.70446 | 76.45011 | 24885 ft | 425 kts | 215° |
| 2026-04-28 11:06 | 27.67966 | 76.43187 | 25223 ft | 427 kts | 216° |
| 2026-04-28 11:06 | 27.65489 | 76.41340 | 25575 ft | 428 kts | 216° |
| 2026-04-28 11:07 | 27.63005 | 76.39472 | 25919 ft | 430 kts | 216° |
| 2026-04-28 11:07 | 27.60512 | 76.37590 | 26247 ft | 432 kts | 216° |
| 2026-04-28 11:07 | 27.58046 | 76.35729 | 26585 ft | 433 kts | 216° |
| 2026-04-28 11:07 | 27.55535 | 76.33836 | 26909 ft | 435 kts | 216° |
| 2026-04-28 11:08 | 27.53011 | 76.31936 | 27213 ft | 437 kts | 216° |
| 2026-04-28 11:08 | 27.50459 | 76.30052 | 27510 ft | 440 kts | 214° |
| 2026-04-28 11:08 | 27.47853 | 76.28235 | 27809 ft | 442 kts | 213° |
| 2026-04-28 11:08 | 27.45214 | 76.26444 | 28151 ft | 443 kts | 213° |
| 2026-04-28 11:09 | 27.42566 | 76.24659 | 28425 ft | 445 kts | 213° |
| 2026-04-28 11:09 | 27.39900 | 76.22857 | 28661 ft | 448 kts | 213° |
| 2026-04-28 11:09 | 27.37228 | 76.21042 | 28918 ft | 450 kts | 213° |
| 2026-04-28 11:09 | 27.34543 | 76.19210 | 29193 ft | 452 kts | 213° |
| 2026-04-28 11:10 | 27.31849 | 76.17368 | 29445 ft | 454 kts | 213° |
| 2026-04-28 11:10 | 27.29146 | 76.15518 | 29694 ft | 456 kts | 213° |
| 2026-04-28 11:10 | 27.26433 | 76.13660 | 29930 ft | 457 kts | 213° |
| 2026-04-28 11:10 | 27.23714 | 76.11799 | 30147 ft | 458 kts | 213° |
| 2026-04-28 11:11 | 27.20994 | 76.09939 | 30463 ft | 457 kts | 213° |
| 2026-04-28 11:11 | 27.18282 | 76.08087 | 30806 ft | 455 kts | 213° |
| 2026-04-28 11:11 | 27.15575 | 76.06238 | 31103 ft | 455 kts | 213° |
| 2026-04-28 11:11 | 27.12873 | 76.04394 | 31367 ft | 455 kts | 213° |
| 2026-04-28 11:12 | 27.10169 | 76.02550 | 31663 ft | 455 kts | 213° |
| 2026-04-28 11:12 | 27.07460 | 76.00702 | 31928 ft | 455 kts | 213° |
| 2026-04-28 11:12 | 27.04758 | 75.98861 | 32242 ft | 454 kts | 213° |
| 2026-04-28 11:12 | 27.02058 | 75.97023 | 32557 ft | 453 kts | 213° |
| 2026-04-28 11:13 | 26.99368 | 75.95192 | 32841 ft | 453 kts | 213° |
| 2026-04-28 11:13 | 26.96670 | 75.93357 | 33096 ft | 453 kts | 213° |
| 2026-04-28 11:13 | 26.93981 | 75.91528 | 33367 ft | 453 kts | 213° |
| 2026-04-28 11:13 | 26.91287 | 75.89698 | 33676 ft | 452 kts | 213° |
| 2026-04-28 11:14 | 26.88606 | 75.87876 | 33929 ft | 451 kts | 213° |
| 2026-04-28 11:14 | 26.85926 | 75.86058 | 34154 ft | 451 kts | 213° |
| 2026-04-28 11:14 | 26.83231 | 75.84248 | 34380 ft | 451 kts | 211° |
| 2026-04-28 11:14 | 26.80397 | 75.82741 | 34612 ft | 453 kts | 204° |
| 2026-04-28 11:15 | 26.77454 | 75.81475 | 34848 ft | 453 kts | 203° |
| 2026-04-28 11:15 | 26.74502 | 75.80255 | 35045 ft | 453 kts | 203° |
| 2026-04-28 11:15 | 26.71535 | 75.79040 | 35235 ft | 453 kts | 203° |
| 2026-04-28 11:15 | 26.68576 | 75.77820 | 35460 ft | 453 kts | 203° |
| 2026-04-28 11:16 | 26.65627 | 75.76593 | 35672 ft | 452 kts | 203° |
| 2026-04-28 11:16 | 26.62677 | 75.75355 | 35845 ft | 453 kts | 204° |
| 2026-04-28 11:16 | 26.59728 | 75.74112 | 36015 ft | 453 kts | 204° |
| 2026-04-28 11:16 | 26.56780 | 75.72865 | 36205 ft | 453 kts | 204° |
| 2026-04-28 11:17 | 26.54828 | 75.72039 | 36326 ft | 453 kts | 204° |
| 2026-04-28 11:17 | 26.47079 | 75.68763 | 36756 ft | 454 kts | 204° |
| 2026-04-28 11:18 | 26.33062 | 75.62853 | 37485 ft | 456 kts | 204° |
| 2026-04-28 11:19 | 26.30091 | 75.61603 | 37628 ft | 456 kts | 204° |
| 2026-04-28 11:19 | 26.24139 | 75.59100 | 37674 ft | 458 kts | 204° |
| 2026-04-28 11:20 | 26.18187 | 75.56600 | 37675 ft | 456 kts | 204° |
| 2026-04-28 11:20 | 26.12263 | 75.54115 | 37677 ft | 454 kts | 204° |
| 2026-04-28 11:21 | 26.06360 | 75.51640 | 37675 ft | 453 kts | 205° |
| 2026-04-28 11:21 | 26.00467 | 75.49172 | 37676 ft | 452 kts | 205° |
| 2026-04-28 11:22 | 25.94588 | 75.46712 | 37685 ft | 451 kts | 205° |
| 2026-04-28 11:22 | 25.88902 | 75.43858 | 37691 ft | 445 kts | 217° |
| 2026-04-28 11:23 | 25.84269 | 75.39441 | 37685 ft | 437 kts | 232° |
| 2026-04-28 11:23 | 25.80243 | 75.34386 | 37677 ft | 438 kts | 232° |
| 2026-04-28 11:24 | 25.76210 | 75.29310 | 37679 ft | 439 kts | 232° |
| 2026-04-28 11:24 | 25.72132 | 75.24237 | 37676 ft | 441 kts | 232° |
| 2026-04-28 11:25 | 25.68033 | 75.19170 | 37678 ft | 442 kts | 232° |
| 2026-04-28 11:25 | 25.63915 | 75.14093 | 37680 ft | 443 kts | 232° |
| 2026-04-28 11:26 | 25.59786 | 75.09007 | 37683 ft | 444 kts | 232° |
| 2026-04-28 11:26 | 25.55650 | 75.03916 | 37683 ft | 445 kts | 232° |
| 2026-04-28 11:27 | 25.51539 | 74.98863 | 37678 ft | 445 kts | 232° |
| 2026-04-28 11:27 | 25.47400 | 74.93779 | 37684 ft | 444 kts | 232° |
| 2026-04-28 11:28 | 25.43264 | 74.88705 | 37684 ft | 444 kts | 232° |
| 2026-04-28 11:28 | 25.39133 | 74.83643 | 37685 ft | 443 kts | 232° |
| 2026-04-28 11:29 | 25.35008 | 74.78594 | 37688 ft | 442 kts | 232° |
| 2026-04-28 11:29 | 25.30891 | 74.73559 | 37694 ft | 441 kts | 232° |
| 2026-04-28 11:30 | 25.26773 | 74.68530 | 37692 ft | 441 kts | 232° |
| 2026-04-28 11:30 | 25.20611 | 74.61011 | 37698 ft | 440 kts | 232° |
| 2026-04-28 11:31 | 25.16502 | 74.56005 | 37700 ft | 440 kts | 232° |
| 2026-04-28 11:31 | 25.12391 | 74.51002 | 37702 ft | 440 kts | 232° |
| 2026-04-28 11:32 | 25.08310 | 74.46035 | 37704 ft | 440 kts | 232° |
| 2026-04-28 11:32 | 25.04199 | 74.41034 | 37705 ft | 440 kts | 232° |
| 2026-04-28 11:33 | 25.00084 | 74.36034 | 37709 ft | 440 kts | 232° |
| 2026-04-28 11:33 | 24.95965 | 74.31034 | 37714 ft | 441 kts | 232° |
| 2026-04-28 11:34 | 24.91841 | 74.26033 | 37702 ft | 442 kts | 232° |
| 2026-04-28 11:34 | 24.89755 | 74.23503 | 37213 ft | 449 kts | 232° |
| 2026-04-28 11:34 | 24.87661 | 74.20966 | 36705 ft | 447 kts | 232° |
| 2026-04-28 11:35 | 24.85573 | 74.18441 | 36166 ft | 445 kts | 232° |
| 2026-04-28 11:35 | 24.83495 | 74.15931 | 35758 ft | 441 kts | 232° |
| 2026-04-28 11:35 | 24.81437 | 74.13445 | 35346 ft | 437 kts | 232° |
| 2026-04-28 11:35 | 24.79401 | 74.10985 | 34936 ft | 433 kts | 232° |
| 2026-04-28 11:36 | 24.77379 | 74.08544 | 34524 ft | 430 kts | 231° |
| 2026-04-28 11:36 | 24.75371 | 74.06119 | 34117 ft | 427 kts | 231° |
| 2026-04-28 11:36 | 24.73380 | 74.03716 | 33715 ft | 423 kts | 231° |
| 2026-04-28 11:36 | 24.71404 | 74.01333 | 33243 ft | 420 kts | 231° |
| 2026-04-28 11:37 | 24.69441 | 73.98966 | 32803 ft | 417 kts | 231° |
| 2026-04-28 11:37 | 24.67496 | 73.96621 | 32384 ft | 413 kts | 231° |
| 2026-04-28 11:37 | 24.65571 | 73.94303 | 31975 ft | 410 kts | 231° |
| 2026-04-28 11:37 | 24.63650 | 73.91991 | 31582 ft | 407 kts | 231° |
| 2026-04-28 11:38 | 24.61746 | 73.89760 | 31189 ft | 405 kts | 227° |
| 2026-04-28 11:38 | 24.59584 | 73.87791 | 30908 ft | 403 kts | 220° |
| 2026-04-28 11:38 | 24.57308 | 73.86006 | 30533 ft | 401 kts | 219° |
| 2026-04-28 11:38 | 24.55034 | 73.84253 | 30170 ft | 398 kts | 219° |
| 2026-04-28 11:39 | 24.52771 | 73.82512 | 29774 ft | 396 kts | 219° |
| 2026-04-28 11:39 | 24.50521 | 73.80774 | 29334 ft | 394 kts | 219° |
| 2026-04-28 11:39 | 24.48291 | 73.79045 | 28909 ft | 391 kts | 219° |
| 2026-04-28 11:39 | 24.46077 | 73.77322 | 28495 ft | 389 kts | 219° |
| 2026-04-28 11:40 | 24.43883 | 73.75611 | 28092 ft | 385 kts | 219° |
| 2026-04-28 11:40 | 24.42413 | 73.74464 | 27829 ft | 383 kts | 219° |
| 2026-04-28 11:40 | 24.40247 | 73.72772 | 27446 ft | 380 kts | 219° |
| 2026-04-28 11:40 | 24.37409 | 73.70555 | 26937 ft | 377 kts | 219° |
| 2026-04-28 11:41 | 24.35996 | 73.69452 | 26682 ft | 375 kts | 219° |
| 2026-04-28 11:41 | 24.33878 | 73.67798 | 26300 ft | 373 kts | 219° |
| 2026-04-28 11:41 | 24.31766 | 73.66150 | 25923 ft | 371 kts | 219° |
| 2026-04-28 11:41 | 24.29668 | 73.64513 | 25542 ft | 370 kts | 219° |
| 2026-04-28 11:42 | 24.27578 | 73.62884 | 25168 ft | 368 kts | 219° |
| 2026-04-28 11:42 | 24.25495 | 73.61260 | 24788 ft | 366 kts | 219° |
| 2026-04-28 11:42 | 24.23420 | 73.59644 | 24396 ft | 365 kts | 219° |
| 2026-04-28 11:42 | 24.21353 | 73.58034 | 24024 ft | 364 kts | 219° |
| 2026-04-28 11:43 | 24.19291 | 73.56429 | 23649 ft | 363 kts | 219° |
| 2026-04-28 11:43 | 24.17231 | 73.54826 | 23252 ft | 363 kts | 219° |
| 2026-04-28 11:43 | 24.15175 | 73.53227 | 22824 ft | 362 kts | 219° |
| 2026-04-28 11:43 | 24.13124 | 73.51632 | 22430 ft | 360 kts | 219° |
| 2026-04-28 11:44 | 24.11093 | 73.50055 | 22052 ft | 357 kts | 219° |
| 2026-04-28 11:44 | 24.09070 | 73.48484 | 21690 ft | 355 kts | 219° |
| 2026-04-28 11:44 | 24.07061 | 73.46924 | 21314 ft | 353 kts | 219° |
| 2026-04-28 11:44 | 24.05063 | 73.45374 | 20951 ft | 351 kts | 219° |
| 2026-04-28 11:45 | 24.03083 | 73.43837 | 20582 ft | 348 kts | 219° |
| 2026-04-28 11:45 | 24.01110 | 73.42307 | 20225 ft | 346 kts | 219° |
| 2026-04-28 11:45 | 23.99151 | 73.40789 | 19871 ft | 344 kts | 219° |
| 2026-04-28 11:45 | 23.97201 | 73.39277 | 19521 ft | 343 kts | 219° |
| 2026-04-28 11:46 | 23.95263 | 73.37775 | 19154 ft | 341 kts | 218° |
| 2026-04-28 11:46 | 23.93328 | 73.36276 | 18801 ft | 340 kts | 218° |
| 2026-04-28 11:46 | 23.91402 | 73.34785 | 18441 ft | 339 kts | 218° |
| 2026-04-28 11:46 | 23.89477 | 73.33296 | 18080 ft | 339 kts | 218° |
| 2026-04-28 11:47 | 23.87558 | 73.31811 | 17691 ft | 337 kts | 218° |
| 2026-04-28 11:47 | 23.85648 | 73.30334 | 17317 ft | 336 kts | 218° |
| 2026-04-28 11:47 | 23.83744 | 73.28861 | 16945 ft | 334 kts | 218° |
| 2026-04-28 11:47 | 23.81851 | 73.27399 | 16587 ft | 332 kts | 218° |
| 2026-04-28 11:48 | 23.79971 | 73.25946 | 16235 ft | 331 kts | 218° |
| 2026-04-28 11:48 | 23.78100 | 73.24502 | 15894 ft | 329 kts | 218° |
| 2026-04-28 11:48 | 23.76232 | 73.23059 | 15541 ft | 328 kts | 218° |
| 2026-04-28 11:48 | 23.74374 | 73.21625 | 15187 ft | 326 kts | 218° |
| 2026-04-28 11:49 | 23.72523 | 73.20198 | 14839 ft | 325 kts | 218° |
| 2026-04-28 11:49 | 23.70680 | 73.18772 | 14504 ft | 324 kts | 218° |
| 2026-04-28 11:49 | 23.68845 | 73.17343 | 14168 ft | 323 kts | 218° |
| 2026-04-28 11:49 | 23.67019 | 73.15918 | 13827 ft | 323 kts | 218° |
| 2026-04-28 11:50 | 23.65196 | 73.14496 | 13496 ft | 322 kts | 218° |
| 2026-04-28 11:50 | 23.63375 | 73.13076 | 13126 ft | 321 kts | 218° |
| 2026-04-28 11:50 | 23.61566 | 73.11666 | 12787 ft | 319 kts | 218° |
| 2026-04-28 11:50 | 23.59769 | 73.10266 | 12452 ft | 317 kts | 218° |
| 2026-04-28 11:51 | 23.57982 | 73.08875 | 12108 ft | 314 kts | 218° |
| 2026-04-28 11:51 | 23.56208 | 73.07494 | 11805 ft | 312 kts | 218° |
| 2026-04-28 11:51 | 23.54449 | 73.06125 | 11484 ft | 310 kts | 218° |
| 2026-04-28 11:51 | 23.52694 | 73.04760 | 11166 ft | 308 kts | 218° |
| 2026-04-28 11:52 | 23.50953 | 73.03408 | 10850 ft | 306 kts | 218° |
| 2026-04-28 11:52 | 23.49223 | 73.02069 | 10543 ft | 304 kts | 218° |
| 2026-04-28 11:52 | 23.47487 | 73.00756 | 10228 ft | 302 kts | 218° |
| 2026-04-28 11:52 | 23.45763 | 72.99462 | 9937 ft | 300 kts | 218° |
| 2026-04-28 11:53 | 23.44056 | 72.98158 | 9580 ft | 299 kts | 220° |
| 2026-04-28 11:53 | 23.42498 | 72.96795 | 9600 ft | 284 kts | 223° |
| 2026-04-28 11:53 | 23.41020 | 72.95437 | 9538 ft | 273 kts | 223° |
| 2026-04-28 11:53 | 23.39602 | 72.94124 | 9460 ft | 263 kts | 223° |
| 2026-04-28 11:54 | 23.38214 | 72.92840 | 9385 ft | 253 kts | 223° |
| 2026-04-28 11:54 | 23.36894 | 72.91625 | 9313 ft | 244 kts | 223° |
| 2026-04-28 11:54 | 23.35641 | 72.90476 | 9245 ft | 234 kts | 223° |
| 2026-04-28 11:54 | 23.34408 | 72.89346 | 9037 ft | 231 kts | 223° |
| 2026-04-28 11:55 | 23.33162 | 72.88206 | 8755 ft | 231 kts | 223° |
| 2026-04-28 11:55 | 23.31947 | 72.87095 | 8481 ft | 231 kts | 223° |
| 2026-04-28 11:55 | 23.30723 | 72.85977 | 8234 ft | 230 kts | 223° |
| 2026-04-28 11:55 | 23.29494 | 72.84856 | 7941 ft | 231 kts | 223° |
| 2026-04-28 11:56 | 23.28249 | 72.83722 | 7688 ft | 228 kts | 223° |
| 2026-04-28 11:56 | 23.27051 | 72.82632 | 7342 ft | 228 kts | 223° |
| 2026-04-28 11:56 | 23.25836 | 72.81525 | 6951 ft | 228 kts | 223° |
| 2026-04-28 11:56 | 23.24622 | 72.80421 | 6601 ft | 227 kts | 223° |
| 2026-04-28 11:57 | 23.23413 | 72.79321 | 6268 ft | 226 kts | 223° |
| 2026-04-28 11:57 | 23.22207 | 72.78224 | 5905 ft | 226 kts | 223° |
| 2026-04-28 11:57 | 23.21003 | 72.77131 | 5559 ft | 225 kts | 223° |
| 2026-04-28 11:57 | 23.19805 | 72.76043 | 5224 ft | 223 kts | 223° |
| 2026-04-28 11:58 | 23.18663 | 72.74998 | 5159 ft | 205 kts | 227° |
| 2026-04-28 11:58 | 23.17959 | 72.73726 | 4789 ft | 196 kts | 261° |
| 2026-04-28 11:58 | 23.18123 | 72.72278 | 4354 ft | 198 kts | 296° |
| 2026-04-28 11:58 | 23.19090 | 72.71227 | 3941 ft | 203 kts | 332° |
| 2026-04-28 11:59 | 23.20493 | 72.71012 | 3530 ft | 211 kts | 8° |
| 2026-04-28 11:59 | 23.21722 | 72.71770 | 3457 ft | 202 kts | 48° |
| 2026-04-28 11:59 | 23.22202 | 72.73196 | 3488 ft | 208 kts | 94° |
| 2026-04-28 11:59 | 23.21658 | 72.74608 | 3408 ft | 207 kts | 139° |
| 2026-04-28 12:00 | 23.20395 | 72.75239 | 3137 ft | 198 kts | 186° |
| 2026-04-28 12:00 | 23.19170 | 72.74792 | 2964 ft | 182 kts | 213° |
| 2026-04-28 12:00 | 23.18047 | 72.74134 | 2704 ft | 183 kts | 217° |
| 2026-04-28 12:00 | 23.17032 | 72.73325 | 2455 ft | 180 kts | 221° |
| 2026-04-28 12:01 | 23.16094 | 72.72439 | 2202 ft | 178 kts | 225° |
| 2026-04-28 12:01 | 23.15204 | 72.71503 | 2064 ft | 178 kts | 227° |
| 2026-04-28 12:01 | 23.14340 | 72.70561 | 1837 ft | 179 kts | 228° |
| 2026-04-28 12:01 | 23.13440 | 72.69595 | 1371 ft | 181 kts | 225° |
| 2026-04-28 12:02 | 23.12579 | 72.68675 | 1169 ft | 167 kts | 226° |
| 2026-04-28 12:02 | 23.11783 | 72.67825 | 981 ft | 155 kts | 227° |
| 2026-04-28 12:02 | 23.11021 | 72.67006 | 788 ft | 149 kts | 226° |
| 2026-04-28 12:02 | 23.10307 | 72.66236 | 608 ft | 141 kts | 227° |
| 2026-04-28 12:03 | 23.09612 | 72.65485 | 461 ft | 144 kts | 227° |
| 2026-04-28 12:03 | 23.08890 | 72.64700 | 257 ft | 147 kts | 228° |
| 2026-04-28 12:03 | 23.08201 | 72.63955 | 196 ft | 126 kts | 225° |
| 2026-04-28 12:03 | 23.07690 | 72.63414 | 200 ft | 82 kts | 224° |
| 2026-04-28 12:04 | 23.07401 | 72.63105 | 192 ft | 44 kts | 225° |
| 2026-04-28 12:04 | 23.07216 | 72.62897 | 200 ft | 26 kts | 239° |
| 2026-04-28 12:04 | 23.07179 | 72.62778 | 193 ft | 13 kts | 253° |
| 2026-04-28 12:04 | 23.07153 | 72.62685 | 194 ft | 13 kts | 253° |
| 2026-04-28 12:05 | 23.07162 | 72.62598 | 201 ft | 12 kts | 311° |
| 2026-04-28 12:05 | 23.07222 | 72.62531 | 190 ft | 12 kts | 314° |
| 2026-04-28 12:05 | 23.07252 | 72.62499 | 190 ft | 2 kts | 317° |
| 2026-04-28 12:05 | 23.07259 | 72.62492 | 198 ft | 1 kts | 317° |
| 2026-04-28 12:06 | 23.07267 | 72.62485 | 192 ft | 2 kts | 327° |
| 2026-04-28 12:06 | 23.07295 | 72.62501 | 190 ft | 10 kts | 40° |
| 2026-04-28 12:06 | 23.07355 | 72.62562 | 198 ft | 12 kts | 43° |
| 2026-04-28 12:06 | 23.07380 | 72.62569 | 193 ft | 1 kts | 347° |
| 2026-04-28 12:07 | 23.07402 | 72.62572 | 196 ft | 7 kts | 10° |
| 2026-04-28 12:07 | 23.07443 | 72.62544 | 199 ft | 6 kts | 311° |
| 2026-04-28 12:07 | 23.07444 | 72.62544 | 198 ft | 0 kts | 311° |
| 2026-04-28 12:43 | 23.07412 | 72.62504 | 202 ft | 0 kts | 313° |